createdAt,value
2018-03-22T00:01:42.440Z,22.77
2018-03-22T00:04:09.012Z,19.63
2018-03-22T00:06:35.527Z,19.87
2018-03-22T00:09:02.915Z,20.60
2018-03-22T00:11:29.413Z,18.57
2018-03-22T00:13:56.635Z,16.10
2018-03-22T00:16:23.143Z,17.47
2018-03-22T00:18:50.404Z,19.30
2018-03-22T00:21:16.913Z,17.13
2018-03-22T00:23:43.390Z,14.90
2018-03-22T00:26:09.899Z,19.93
2018-03-22T00:28:37.164Z,15.67
2018-03-22T00:31:03.659Z,21.97
2018-03-22T00:33:30.164Z,16.83
2018-03-22T00:35:56.655Z,20.17
2018-03-22T00:38:23.904Z,18.90
2018-03-22T00:40:51.137Z,15.00
2018-03-22T00:43:17.642Z,18.13
2018-03-22T00:45:44.143Z,23.53
2018-03-22T00:48:10.625Z,15.07
2018-03-22T00:50:37.826Z,14.77
2018-03-22T00:53:04.292Z,17.40
2018-03-22T00:55:30.784Z,19.10
2018-03-22T00:57:57.287Z,16.47
2018-03-22T01:00:23.776Z,16.90
2018-03-22T01:02:50.250Z,14.07
2018-03-22T01:05:16.768Z,18.83
2018-03-22T01:07:43.241Z,15.77
2018-03-22T01:10:10.541Z,14.67
2018-03-22T01:12:37.026Z,14.60
2018-03-22T01:15:03.533Z,13.77
2018-03-22T01:17:30.020Z,16.17
2018-03-22T01:19:56.556Z,13.77
2018-03-22T01:22:23.064Z,16.30
2018-03-22T01:24:50.315Z,12.97
2018-03-22T01:27:17.596Z,17.93
2018-03-22T01:29:44.099Z,14.13
2018-03-22T01:32:10.578Z,15.97
2018-03-22T01:34:37.070Z,12.27
2018-03-22T01:37:04.309Z,16.00
2018-03-22T01:39:30.885Z,14.87
2018-03-22T01:41:57.370Z,14.47
2018-03-22T01:44:23.859Z,17.43
2018-03-22T01:46:50.340Z,17.70
2018-03-22T01:49:16.866Z,17.83
2018-03-22T01:51:43.347Z,12.90
2018-03-22T01:54:09.858Z,14.83
2018-03-22T01:56:36.371Z,13.03
2018-03-22T01:59:02.871Z,11.50
2018-03-22T02:01:29.398Z,16.13
2018-03-22T02:03:55.911Z,13.90
2018-03-22T02:06:22.463Z,12.17
2018-03-22T02:08:48.962Z,13.90
2018-03-22T02:11:15.471Z,13.90
2018-03-22T02:13:42.713Z,15.93
2018-03-22T02:16:09.585Z,14.43
2018-03-22T02:18:36.099Z,16.23
2018-03-22T02:21:02.608Z,12.77
2018-03-22T02:23:29.093Z,14.17
2018-03-22T02:25:55.581Z,12.77
2018-03-22T02:28:22.076Z,13.70
2018-03-22T02:30:48.589Z,11.03
2018-03-22T02:33:15.084Z,14.50
2018-03-22T02:35:41.559Z,12.60
2018-03-22T02:38:08.059Z,17.40
2018-03-22T02:40:34.561Z,16.57
2018-03-22T02:43:01.110Z,14.83
2018-03-22T02:45:27.627Z,16.33
2018-03-22T02:47:54.116Z,17.60
2018-03-22T02:50:20.718Z,15.73
2018-03-22T02:52:48.222Z,15.27
2018-03-22T02:55:14.736Z,20.70
2018-03-22T02:57:41.960Z,14.07
2018-03-22T03:00:08.546Z,16.03
2018-03-22T03:02:35.046Z,17.23
2018-03-22T03:05:01.520Z,16.97
2018-03-22T03:07:28.078Z,20.87
2018-03-22T03:09:54.601Z,17.27
2018-03-22T03:12:21.127Z,16.63
2018-03-22T03:14:47.631Z,16.20
2018-03-22T03:17:14.094Z,18.63
2018-03-22T03:19:40.624Z,19.83
2018-03-22T03:22:07.148Z,20.30
2018-03-22T03:24:33.639Z,20.07
2018-03-22T03:27:00.140Z,17.70
2018-03-22T03:29:26.646Z,21.33
2018-03-22T03:31:53.867Z,23.63
2018-03-22T03:34:20.340Z,18.20
2018-03-22T03:36:46.825Z,19.13
2018-03-22T03:39:13.307Z,20.80
2018-03-22T03:41:39.773Z,16.07
2018-03-22T03:44:07.583Z,19.07
2018-03-22T03:46:34.061Z,18.73
2018-03-22T03:49:00.524Z,18.30
2018-03-22T03:51:27.019Z,18.07
2018-03-22T03:53:53.502Z,18.40
2018-03-22T03:56:19.990Z,19.93
2018-03-22T03:58:46.476Z,14.97
2018-03-22T04:01:13.003Z,15.80
2018-03-22T04:03:39.481Z,17.07
2018-03-22T04:06:06.027Z,14.83
2018-03-22T04:08:32.524Z,19.00
2018-03-22T04:10:59.002Z,18.50
2018-03-22T04:13:25.543Z,18.97
2018-03-22T04:15:52.015Z,15.53
2018-03-22T04:18:18.505Z,19.03
2018-03-22T04:20:45.050Z,17.83
2018-03-22T04:23:11.533Z,16.57
2018-03-22T04:25:38.009Z,24.23
2018-03-22T04:28:04.481Z,22.87
2018-03-22T04:30:31.017Z,17.33
2018-03-22T04:32:57.509Z,21.33
2018-03-22T04:35:23.997Z,24.17
2018-03-22T04:37:50.507Z,17.10
2018-03-22T04:40:17.002Z,23.00
2018-03-22T04:42:43.472Z,17.37
2018-03-22T04:45:10.705Z,19.50
2018-03-22T04:47:37.234Z,22.33
2018-03-22T04:50:03.705Z,20.23
2018-03-22T04:52:30.190Z,18.63
2018-03-22T04:54:56.706Z,19.00
2018-03-22T04:57:23.185Z,20.57
2018-03-22T04:59:50.422Z,15.83
2018-03-22T05:02:16.947Z,17.30
2018-03-22T05:04:43.446Z,14.70
2018-03-22T05:07:09.961Z,16.47
2018-03-22T05:09:36.502Z,20.50
2018-03-22T05:12:02.969Z,14.10
2018-03-22T05:14:29.466Z,16.50
2018-03-22T05:16:55.958Z,17.30
2018-03-22T05:19:22.514Z,15.77
2018-03-22T05:21:49.728Z,14.63
2018-03-22T05:24:16.208Z,17.60
2018-03-22T05:26:43.438Z,17.57
2018-03-22T05:29:09.931Z,17.40
2018-03-22T05:31:36.407Z,15.70
2018-03-22T05:34:02.894Z,20.87
2018-03-22T05:36:29.401Z,17.83
2018-03-22T05:38:55.962Z,23.00
2018-03-22T05:41:22.482Z,18.43
2018-03-22T05:43:48.992Z,17.43
2018-03-22T05:46:15.503Z,16.07
2018-03-22T05:48:42.036Z,18.60
2018-03-22T05:51:10.143Z,19.13
2018-03-22T05:53:37.439Z,16.03
2018-03-22T05:56:04.022Z,22.57
2018-03-22T05:58:30.556Z,20.37
2018-03-22T06:00:57.846Z,23.30
2018-03-22T06:03:24.409Z,21.10
2018-03-22T06:05:50.906Z,16.87
2018-03-22T06:08:17.504Z,24.23
2018-03-22T06:10:43.986Z,19.97
2018-03-22T06:13:11.367Z,19.40
2018-03-22T06:15:37.872Z,18.97
2018-03-22T06:18:04.403Z,15.23
2018-03-22T06:20:30.925Z,15.97
2018-03-22T06:22:57.572Z,20.73
2018-03-22T06:25:24.063Z,15.70
2018-03-22T06:27:50.560Z,15.37
2018-03-22T06:30:17.108Z,17.93
2018-03-22T06:32:43.610Z,14.17
2018-03-22T06:35:10.091Z,16.97
2018-03-22T06:37:37.342Z,16.67
2018-03-22T06:40:03.870Z,17.27
2018-03-22T06:42:30.343Z,17.23
2018-03-22T06:44:56.881Z,20.53
2018-03-22T06:47:23.377Z,19.07
2018-03-22T06:49:49.966Z,14.33
2018-03-22T06:52:16.511Z,16.33
2018-03-22T06:54:43.003Z,25.30
2018-03-22T06:57:09.508Z,14.43
2018-03-22T06:59:36.132Z,20.03
2018-03-22T07:02:02.650Z,11.83
2018-03-22T07:04:29.138Z,20.37
2018-03-22T07:06:55.782Z,12.50
2018-03-22T07:09:22.337Z,16.13
2018-03-22T07:11:49.584Z,14.80
2018-03-22T07:14:16.076Z,15.60
2018-03-22T07:16:42.611Z,14.80
2018-03-22T07:19:09.848Z,25.07
2018-03-22T07:21:36.415Z,17.70
2018-03-22T07:24:02.925Z,15.60
2018-03-22T07:26:29.481Z,16.90
2018-03-22T07:28:55.974Z,17.13
2018-03-22T07:31:22.505Z,16.53
2018-03-22T07:33:49.135Z,12.33
2018-03-22T07:36:16.367Z,15.40
2018-03-22T07:38:42.932Z,17.03
2018-03-22T07:41:09.434Z,22.10
2018-03-22T07:43:41.873Z,16.70
2018-03-22T07:46:08.392Z,25.47
2018-03-22T07:48:34.982Z,25.47
2018-03-22T07:51:01.478Z,18.63
2018-03-22T07:53:27.968Z,16.77
2018-03-22T07:55:55.203Z,20.73
2018-03-22T07:58:21.689Z,21.30
2018-03-22T08:00:48.214Z,20.40
2018-03-22T08:03:14.883Z,19.13
2018-03-22T08:05:42.157Z,15.03
2018-03-22T08:08:08.727Z,19.60
2018-03-22T08:10:35.203Z,16.37
2018-03-22T08:13:01.712Z,18.97
2018-03-22T08:15:28.204Z,15.43
2018-03-22T08:17:54.717Z,16.47
2018-03-22T08:20:21.956Z,26.23
2018-03-22T08:22:48.498Z,16.80
2018-03-22T08:25:15.039Z,21.30
2018-03-22T08:27:41.520Z,17.37
2018-03-22T08:30:08.761Z,17.17
2018-03-22T08:32:35.254Z,14.83
2018-03-22T08:35:01.807Z,12.33
2018-03-22T08:37:28.352Z,13.10
2018-03-22T08:39:54.918Z,12.40
2018-03-22T08:42:22.258Z,11.30
2018-03-22T08:44:48.768Z,15.53
2018-03-22T08:47:15.354Z,12.40
2018-03-22T08:49:41.845Z,14.97
2018-03-22T08:52:08.373Z,12.30
2018-03-22T08:54:35.622Z,14.27
2018-03-22T08:57:02.090Z,18.73
2018-03-22T08:59:29.345Z,12.07
2018-03-22T09:01:55.866Z,12.63
2018-03-22T09:04:22.450Z,13.50
2018-03-22T09:06:48.950Z,14.10
2018-03-22T09:09:15.418Z,13.57
2018-03-22T09:11:41.905Z,11.07
2018-03-22T09:14:08.433Z,13.07
2018-03-22T09:16:34.938Z,15.33
2018-03-22T09:19:01.447Z,11.23
2018-03-22T09:21:27.913Z,12.83
2018-03-22T09:23:54.496Z,14.47
2018-03-22T09:26:21.732Z,13.37
2018-03-22T09:28:48.288Z,13.53
2018-03-22T09:31:14.834Z,13.23
2018-03-22T09:33:41.327Z,10.33
2018-03-22T09:36:08.566Z,15.87
2018-03-22T09:38:35.844Z,16.43
2018-03-22T09:41:02.306Z,12.87
2018-03-22T09:43:28.800Z,12.83
2018-03-22T09:45:55.268Z,12.30
2018-03-22T09:48:21.808Z,10.23
2018-03-22T09:50:48.346Z,9.57
2018-03-22T09:53:15.765Z,14.00
2018-03-22T09:55:42.237Z,13.17
2018-03-22T09:58:08.774Z,16.37
2018-03-22T10:00:35.256Z,13.73
2018-03-22T10:03:01.769Z,13.73
2018-03-22T10:05:28.279Z,15.90
2018-03-22T10:07:54.778Z,12.93
2018-03-22T10:10:21.301Z,10.43
2018-03-22T10:12:47.808Z,11.07
2018-03-22T10:15:14.288Z,12.07
2018-03-22T10:17:40.866Z,13.20
2018-03-22T10:20:07.345Z,14.17
2018-03-22T10:22:33.829Z,17.77
2018-03-22T10:25:00.308Z,13.80
2018-03-22T10:27:26.804Z,15.27
2018-03-22T10:29:53.330Z,14.37
2018-03-22T10:32:19.819Z,13.73
2018-03-22T10:34:46.341Z,15.70
2018-03-22T10:37:13.546Z,12.70
2018-03-22T10:39:40.028Z,11.83
2018-03-22T10:42:06.521Z,16.17
2018-03-22T10:44:32.993Z,12.37
2018-03-22T10:46:59.537Z,16.50
2018-03-22T10:49:26.002Z,13.30
2018-03-22T10:51:53.232Z,12.17
2018-03-22T10:54:19.706Z,17.03
2018-03-22T10:56:46.202Z,12.33
2018-03-22T10:59:12.787Z,17.13
2018-03-22T11:01:45.335Z,13.87
2018-03-22T11:04:11.805Z,13.50
2018-03-22T11:06:38.266Z,14.37
2018-03-22T11:09:04.828Z,13.03
2018-03-22T11:11:31.311Z,15.67
2018-03-22T11:13:57.790Z,13.47
2018-03-22T11:16:24.274Z,11.57
2018-03-22T11:18:50.779Z,15.13
2018-03-22T11:21:17.269Z,12.53
2018-03-22T11:23:43.806Z,12.43
2018-03-22T11:26:10.297Z,13.87
2018-03-22T11:28:36.832Z,14.77
2018-03-22T11:31:03.339Z,11.63
2018-03-22T11:33:29.832Z,11.10
2018-03-22T11:35:56.323Z,14.53
2018-03-22T11:38:22.843Z,14.20
2018-03-22T11:40:49.359Z,11.40
2018-03-22T11:43:15.815Z,13.30
2018-03-22T11:45:42.285Z,11.63
2018-03-22T11:48:08.856Z,12.67
2018-03-22T11:50:35.345Z,11.00
2018-03-22T11:53:01.831Z,14.87
2018-03-22T11:55:28.322Z,14.07
2018-03-22T11:57:54.833Z,11.53
2018-03-22T12:00:22.110Z,12.17
2018-03-22T12:02:48.640Z,12.27
2018-03-22T12:05:15.202Z,12.47
2018-03-22T12:07:41.689Z,11.77
2018-03-22T12:10:08.922Z,11.30
2018-03-22T12:12:35.418Z,14.63
2018-03-22T12:15:01.883Z,11.90
2018-03-22T12:17:28.389Z,12.47
2018-03-22T12:19:54.971Z,11.13
2018-03-22T12:22:21.470Z,13.93
2018-03-22T12:24:47.954Z,11.43
2018-03-22T12:27:15.179Z,12.60
2018-03-22T12:29:41.654Z,15.20
2018-03-22T12:32:08.203Z,14.63
2018-03-22T12:34:34.798Z,11.67
2018-03-22T12:37:02.018Z,16.90
2018-03-22T12:39:28.513Z,12.53
2018-03-22T12:41:55.035Z,12.83
2018-03-22T12:44:21.536Z,13.77
2018-03-22T12:46:48.021Z,12.53
2018-03-22T12:49:14.595Z,13.17
2018-03-22T12:51:41.096Z,12.67
2018-03-22T12:54:07.674Z,12.80
2018-03-22T12:56:34.168Z,10.90
2018-03-22T12:59:00.706Z,10.60
2018-03-22T13:01:27.197Z,12.27
2018-03-22T13:03:53.660Z,10.60
2018-03-22T13:06:20.949Z,12.93
2018-03-22T13:08:47.510Z,12.67
2018-03-22T13:11:13.981Z,12.50
2018-03-22T13:13:41.192Z,13.60
2018-03-22T13:16:07.759Z,12.50
2018-03-22T13:18:34.260Z,15.40
2018-03-22T13:21:00.775Z,11.33
2018-03-22T13:23:27.283Z,12.13
2018-03-22T13:25:53.785Z,11.63
2018-03-22T13:28:20.317Z,11.63
2018-03-22T13:30:46.899Z,11.13
2018-03-22T13:33:13.379Z,13.67
2018-03-22T13:35:39.842Z,12.47
2018-03-22T13:38:07.073Z,12.47
2018-03-22T13:40:33.545Z,12.57
2018-03-22T13:43:00.055Z,11.37
2018-03-22T13:45:26.564Z,12.57
2018-03-22T13:47:53.805Z,13.00
2018-03-22T13:50:20.285Z,12.80
2018-03-22T13:52:46.828Z,11.23
2018-03-22T13:55:14.067Z,11.60
2018-03-22T13:57:40.568Z,11.03
2018-03-22T14:00:07.043Z,13.73
2018-03-22T14:02:34.267Z,16.10
2018-03-22T14:05:00.736Z,14.53
2018-03-22T14:07:27.234Z,14.50
2018-03-22T14:09:53.721Z,12.37
2018-03-22T14:12:20.238Z,12.53
2018-03-22T14:14:47.483Z,13.90
2018-03-22T14:17:14.812Z,11.90
2018-03-22T14:19:41.298Z,12.53
2018-03-22T14:22:07.801Z,12.00
2018-03-22T14:24:35.071Z,11.50
2018-03-22T14:27:01.576Z,12.97
2018-03-22T14:29:28.068Z,12.67
2018-03-22T14:31:54.578Z,13.00
2018-03-22T14:34:21.084Z,12.03
2018-03-22T14:36:47.583Z,12.27
2018-03-22T14:39:14.084Z,12.20
2018-03-22T14:41:40.600Z,12.10
2018-03-22T14:44:07.080Z,14.20
2018-03-22T14:46:33.543Z,12.57
2018-03-22T14:49:00.028Z,15.30
2018-03-22T14:51:26.538Z,15.20
2018-03-22T14:53:53.761Z,14.80
2018-03-22T14:56:20.256Z,13.90
2018-03-22T14:58:46.725Z,17.73
2018-03-22T15:01:13.244Z,12.70
2018-03-22T15:03:39.753Z,12.67
2018-03-22T15:06:06.256Z,21.17
2018-03-22T15:08:32.766Z,13.23
2018-03-22T15:10:59.306Z,13.93
2018-03-22T15:13:26.581Z,13.00
2018-03-22T15:15:53.090Z,16.83
2018-03-22T15:18:19.605Z,12.27
2018-03-22T15:20:46.085Z,12.60
2018-03-22T15:23:12.574Z,16.40
2018-03-22T15:25:39.919Z,13.93
2018-03-22T15:28:06.401Z,14.70
2018-03-22T15:30:32.876Z,12.50
2018-03-22T15:32:59.409Z,13.27
2018-03-22T15:35:25.947Z,16.27
2018-03-22T15:37:52.478Z,14.90
2018-03-22T15:40:18.970Z,20.67
2018-03-22T15:42:45.435Z,17.87
2018-03-22T15:45:12.695Z,13.80
2018-03-22T15:47:39.233Z,12.87
2018-03-22T15:50:05.715Z,14.33
2018-03-22T15:52:32.200Z,14.87
2018-03-22T15:54:58.673Z,24.47
2018-03-22T15:57:25.936Z,12.80
2018-03-22T15:59:52.416Z,13.97
2018-03-22T16:02:18.958Z,13.20
2018-03-22T16:04:45.447Z,13.50
2018-03-22T16:07:11.968Z,12.90
2018-03-22T16:09:38.467Z,14.03
2018-03-22T16:12:04.957Z,12.10
2018-03-22T16:14:31.467Z,12.37
2018-03-22T16:16:58.691Z,14.67
2018-03-22T16:19:25.225Z,12.83
2018-03-22T16:21:52.429Z,13.20
2018-03-22T16:24:18.928Z,16.47
2018-03-22T16:26:45.429Z,16.20
2018-03-22T16:29:12.745Z,18.00
2018-03-22T16:31:40.029Z,18.50
2018-03-22T16:34:07.251Z,13.70
2018-03-22T16:36:33.732Z,15.27
2018-03-22T16:39:00.220Z,16.77
2018-03-22T16:41:26.718Z,14.80
2018-03-22T16:43:53.210Z,12.20
2018-03-22T16:46:20.475Z,15.00
2018-03-22T16:48:46.982Z,16.40
2018-03-22T16:51:13.433Z,19.67
2018-03-22T16:53:39.967Z,15.20
2018-03-22T16:56:07.220Z,20.83
2018-03-22T16:58:33.700Z,18.30
2018-03-22T17:01:00.195Z,18.40
2018-03-22T17:03:26.761Z,19.33
2018-03-22T17:05:53.268Z,19.10
2018-03-22T17:08:19.775Z,22.10
2018-03-22T17:10:47.073Z,18.40
2018-03-22T17:13:13.572Z,20.03
2018-03-22T17:15:40.091Z,21.23
2018-03-22T17:18:07.082Z,19.13
2018-03-22T17:20:36.355Z,19.03
2018-03-22T17:23:03.172Z,20.03
2018-03-22T17:25:29.734Z,19.00
2018-03-22T17:27:56.233Z,19.30
2018-03-22T17:30:22.784Z,22.37
2018-03-22T17:32:50.067Z,12.73
2018-03-22T17:35:16.620Z,16.43
2018-03-22T17:37:43.199Z,16.50
2018-03-22T17:40:09.755Z,18.10
2018-03-22T17:42:36.289Z,18.03
2018-03-22T17:45:02.914Z,20.70
2018-03-22T17:47:29.412Z,22.13
2018-03-22T17:49:55.988Z,24.00
2018-03-22T17:52:22.457Z,22.20
2018-03-22T17:54:48.955Z,31.57
2018-03-22T17:57:16.208Z,21.10
2018-03-22T17:59:43.483Z,21.03
2018-03-22T18:02:10.001Z,21.70
2018-03-22T18:04:36.511Z,27.17
2018-03-22T18:07:03.057Z,25.17
2018-03-22T18:09:29.592Z,22.57
2018-03-22T18:11:56.188Z,25.53
2018-03-22T18:14:22.829Z,34.83
2018-03-22T18:16:49.351Z,33.63
2018-03-22T18:19:15.871Z,38.00
2018-03-22T18:21:42.427Z,35.50
2018-03-22T18:24:09.670Z,43.93
2018-03-22T18:26:36.203Z,46.10
2018-03-22T18:29:02.688Z,46.23
2018-03-22T18:31:29.199Z,47.83
2018-03-22T18:33:56.457Z,35.13
2018-03-22T18:36:22.974Z,33.70
2018-03-22T18:38:49.446Z,33.23
2018-03-22T18:41:15.930Z,28.30
2018-03-22T18:43:42.408Z,34.97
2018-03-22T18:46:08.923Z,36.03
2018-03-22T18:48:35.462Z,32.07
2018-03-22T18:51:02.715Z,29.37
2018-03-22T18:53:29.216Z,25.53
2018-03-22T18:55:55.706Z,29.13
2018-03-22T18:58:22.180Z,39.03
2018-03-22T19:00:49.380Z,27.50
2018-03-22T19:03:15.869Z,23.83
2018-03-22T19:05:42.368Z,28.33
2018-03-22T19:08:08.842Z,32.13
2018-03-22T19:10:35.330Z,29.67
2018-03-22T19:13:01.804Z,26.83
2018-03-22T19:15:28.298Z,31.03
2018-03-22T19:17:54.840Z,31.77
2018-03-22T19:20:21.335Z,29.63
2018-03-22T19:22:49.198Z,35.37
2018-03-22T19:25:16.568Z,25.97
2018-03-22T19:27:43.091Z,31.03
2018-03-22T19:30:10.332Z,30.87
2018-03-22T19:32:37.581Z,28.30
2018-03-22T19:35:04.123Z,29.53
2018-03-22T19:37:30.667Z,32.07
2018-03-22T19:39:57.914Z,27.60
2018-03-22T19:42:24.480Z,38.53
2018-03-22T19:44:50.967Z,29.67
2018-03-22T19:47:17.435Z,28.03
2018-03-22T19:49:44.745Z,28.77
2018-03-22T19:52:11.257Z,29.97
2018-03-22T19:54:37.753Z,29.63
2018-03-22T19:57:05.095Z,30.07
2018-03-22T19:59:31.636Z,34.63
2018-03-22T20:01:58.913Z,31.27
2018-03-22T20:04:25.420Z,41.40
2018-03-22T20:06:51.892Z,34.07
2018-03-22T20:09:18.415Z,31.10
2018-03-22T20:11:44.953Z,40.93
2018-03-22T20:14:11.508Z,35.57
2018-03-22T20:16:38.032Z,30.50
2018-03-22T20:19:04.551Z,33.87
2018-03-22T20:21:31.870Z,27.30
2018-03-22T20:23:58.350Z,31.97
2018-03-22T20:26:24.937Z,30.83
2018-03-22T20:28:51.426Z,28.67
2018-03-22T20:31:17.917Z,32.77
2018-03-22T20:33:44.415Z,30.73
2018-03-22T20:36:10.926Z,30.13
2018-03-22T20:38:37.439Z,25.97
2018-03-22T20:41:04.819Z,26.57
2018-03-22T20:43:31.357Z,26.40
2018-03-22T20:45:57.846Z,26.87
2018-03-22T20:48:24.331Z,25.83
2018-03-22T20:50:50.857Z,28.40
2018-03-22T20:53:17.402Z,34.53
2018-03-22T20:55:43.878Z,26.13
2018-03-22T20:58:11.236Z,26.50
2018-03-22T21:00:37.736Z,35.10
2018-03-22T21:03:04.304Z,35.40
2018-03-22T21:05:30.805Z,34.23
2018-03-22T21:07:57.284Z,37.90
2018-03-22T21:10:23.791Z,27.37
2018-03-22T21:12:50.300Z,28.93
2018-03-22T21:15:16.810Z,26.77
2018-03-22T21:17:44.057Z,32.37
2018-03-22T21:20:11.305Z,27.80
2018-03-22T21:22:38.712Z,28.00
2018-03-22T21:25:05.296Z,20.87
2018-03-22T21:27:31.834Z,23.90
2018-03-22T21:29:59.138Z,22.60
2018-03-22T21:32:25.651Z,25.93
2018-03-22T21:34:52.253Z,21.50
2018-03-22T21:37:18.831Z,19.33
2018-03-22T21:39:45.425Z,22.90
2018-03-22T21:42:13.311Z,21.53
2018-03-22T21:44:40.006Z,19.03
2018-03-22T21:47:18.639Z,24.80
2018-03-22T21:49:45.219Z,20.73
2018-03-22T21:52:23.907Z,25.73
2018-03-22T21:54:50.413Z,22.90
2018-03-22T21:57:16.948Z,23.77
2018-03-22T21:59:43.500Z,27.13
2018-03-22T22:02:09.981Z,21.67
2018-03-22T22:04:36.534Z,22.47
2018-03-22T22:07:03.122Z,18.67
2018-03-22T22:09:29.610Z,20.53
2018-03-22T22:11:56.144Z,23.40
2018-03-22T22:14:22.641Z,19.97
2018-03-22T22:16:49.151Z,22.40
2018-03-22T22:19:15.732Z,27.83
2018-03-22T22:21:42.245Z,23.63
2018-03-22T22:24:09.609Z,20.57
2018-03-22T22:26:36.885Z,19.30
2018-03-22T22:29:03.455Z,20.13
2018-03-22T22:31:30.023Z,18.57
2018-03-22T22:33:57.257Z,26.03
2018-03-22T22:36:23.836Z,28.73
2018-03-22T22:38:50.465Z,19.17
2018-03-22T22:41:17.114Z,25.43
2018-03-22T22:43:43.624Z,26.23
2018-03-22T22:46:10.237Z,19.60
2018-03-22T22:48:36.829Z,23.40
2018-03-22T22:51:03.365Z,19.23
2018-03-22T22:53:29.890Z,24.93
2018-03-22T22:55:56.516Z,22.97
2018-03-22T22:58:23.064Z,22.67
2018-03-22T23:00:49.574Z,24.50
2018-03-22T23:03:16.865Z,22.93
2018-03-22T23:05:43.433Z,20.57
2018-03-22T23:08:09.977Z,23.60
2018-03-22T23:10:36.581Z,18.83
2018-03-22T23:13:03.190Z,20.70
2018-03-22T23:15:30.499Z,28.67
2018-03-22T23:17:57.041Z,24.57
2018-03-22T23:20:23.546Z,25.30
2018-03-22T23:22:50.033Z,23.47
2018-03-22T23:25:17.285Z,25.93
2018-03-22T23:27:43.767Z,25.23
2018-03-22T23:30:10.311Z,28.13
2018-03-22T23:32:36.797Z,25.20
2018-03-22T23:35:03.318Z,23.10
2018-03-22T23:37:29.930Z,21.67
2018-03-22T23:39:56.495Z,24.27
2018-03-22T23:42:23.103Z,26.00
2018-03-22T23:44:50.377Z,23.83
2018-03-22T23:47:17.008Z,22.27
2018-03-22T23:49:43.613Z,24.47
2018-03-22T23:52:10.087Z,22.97
2018-03-22T23:54:37.506Z,20.20
2018-03-22T23:57:03.985Z,20.53
2018-03-22T23:59:31.260Z,22.77
